sensor_id;sensor_type;location;lat;lon;timestamp;pressure;altitude;pressure_sealevel;temperature;humidity
51289;BME280;37372;52.294;5.152;2023-03-14T00:01:18;98802.56;;;9.38;71.20
51289;BME280;37372;52.294;5.152;2023-03-14T00:03:48;98802.56;;;9.33;71.86
51289;BME280;37372;52.294;5.152;2023-03-14T00:06:17;98808.88;;;9.39;71.66
51289;BME280;37372;52.294;5.152;2023-03-14T00:08:44;98811.31;;;9.45;71.10
51289;BME280;37372;52.294;5.152;2023-03-14T00:11:21;98804.47;;;9.58;71.09
51289;BME280;37372;52.294;5.152;2023-03-14T00:14:10;98809.16;;;9.63;70.69
51289;BME280;37372;52.294;5.152;2023-03-14T00:16:37;98815.72;;;9.62;70.90
51289;BME280;37372;52.294;5.152;2023-03-14T00:19:02;98803.97;;;9.66;70.66
51289;BME280;37372;52.294;5.152;2023-03-14T00:21:28;98813.53;;;9.69;71.06
51289;BME280;37372;52.294;5.152;2023-03-14T00:23:53;98805.84;;;9.71;70.66
51289;BME280;37372;52.294;5.152;2023-03-14T00:26:20;98808.34;;;9.72;70.66
51289;BME280;37372;52.294;5.152;2023-03-14T00:28:50;98817.38;;;9.73;70.50
51289;BME280;37372;52.294;5.152;2023-03-14T00:31:17;98810.50;;;9.70;70.67
51289;BME280;37372;52.294;5.152;2023-03-14T00:33:45;98793.81;;;9.67;70.58
51289;BME280;37372;52.294;5.152;2023-03-14T00:36:16;98795.47;;;9.68;70.87
51289;BME280;37372;52.294;5.152;2023-03-14T00:38:47;98788.59;;;9.75;70.25
51289;BME280;37372;52.294;5.152;2023-03-14T00:41:16;98794.06;;;9.70;70.58
51289;BME280;37372;52.294;5.152;2023-03-14T00:43:57;98799.56;;;9.70;70.56
51289;BME280;37372;52.294;5.152;2023-03-14T00:46:23;98799.84;;;9.74;70.16
51289;BME280;37372;52.294;5.152;2023-03-14T00:48:49;98807.47;;;9.82;70.06
51289;BME280;37372;52.294;5.152;2023-03-14T00:51:14;98809.13;;;9.78;70.05
51289;BME280;37372;52.294;5.152;2023-03-14T00:53:40;98802.00;;;9.77;70.13
51289;BME280;37372;52.294;5.152;2023-03-14T00:56:09;98794.91;;;9.71;70.28
51289;BME280;37372;52.294;5.152;2023-03-14T00:58:35;98801.75;;;9.73;70.04
51289;BME280;37372;52.294;5.152;2023-03-14T01:01:28;98805.31;;;9.69;70.43
51289;BME280;37372;52.294;5.152;2023-03-14T01:04:01;98794.63;;;9.67;70.63
51289;BME280;37372;52.294;5.152;2023-03-14T01:06:27;98803.41;;;9.74;70.75
51289;BME280;37372;52.294;5.152;2023-03-14T01:09:02;98801.47;;;9.65;71.79
51289;BME280;37372;52.294;5.152;2023-03-14T01:11:30;98801.47;;;9.49;72.77
51289;BME280;37372;52.294;5.152;2023-03-14T01:14:06;98793.53;;;9.38;73.81
51289;BME280;37372;52.294;5.152;2023-03-14T01:16:34;98806.94;;;9.39;73.46
51289;BME280;37372;52.294;5.152;2023-03-14T01:19:04;98799.84;;;9.43;73.21
51289;BME280;37372;52.294;5.152;2023-03-14T01:21:32;98796.28;;;9.38;74.63
51289;BME280;37372;52.294;5.152;2023-03-14T01:24:10;98803.66;;;9.27;76.54
51289;BME280;37372;52.294;5.152;2023-03-14T01:26:37;98810.75;;;9.08;78.15
51289;BME280;37372;52.294;5.152;2023-03-14T01:29:05;98813.19;;;8.99;79.04
51289;BME280;37372;52.294;5.152;2023-03-14T01:31:30;98801.66;;;8.82;80.40
51289;BME280;37372;52.294;5.152;2023-03-14T01:33:55;98802.72;;;8.76;81.37
51289;BME280;37372;52.294;5.152;2023-03-14T01:36:21;98808.72;;;8.57;82.23
51289;BME280;37372;52.294;5.152;2023-03-14T01:38:47;98803.25;;;8.57;82.26
51289;BME280;37372;52.294;5.152;2023-03-14T01:41:20;98812.78;;;8.55;82.26
51289;BME280;37372;52.294;5.152;2023-03-14T01:43:49;98804.31;;;8.51;82.72
51289;BME280;37372;52.294;5.152;2023-03-14T01:46:32;98808.13;;;8.55;82.30
51289;BME280;37372;52.294;5.152;2023-03-14T01:49:34;98811.44;;;8.57;81.70
51289;BME280;37372;52.294;5.152;2023-03-14T01:52:24;98793.94;;;8.58;81.38
51289;BME280;37372;52.294;5.152;2023-03-14T01:55:12;98793.66;;;8.55;81.78
51289;BME280;37372;52.294;5.152;2023-03-14T01:57:44;98789.03;;;8.60;80.92
51289;BME280;37372;52.294;5.152;2023-03-14T02:00:21;98779.75;;;8.61;80.61
51289;BME280;37372;52.294;5.152;2023-03-14T02:03:15;98768.56;;;8.68;80.04
51289;BME280;37372;52.294;5.152;2023-03-14T02:05:45;98783.34;;;8.72;79.93
51289;BME280;37372;52.294;5.152;2023-03-14T02:08:18;98773.50;;;8.76;79.62
51289;BME280;37372;52.294;5.152;2023-03-14T02:10:47;98776.78;;;8.73;79.59
51289;BME280;37372;52.294;5.152;2023-03-14T02:13:17;98774.59;;;8.80;78.93
51289;BME280;37372;52.294;5.152;2023-03-14T02:15:55;98766.69;;;8.94;78.38
51289;BME280;37372;52.294;5.152;2023-03-14T02:18:59;98769.97;;;8.86;78.82
51289;BME280;37372;52.294;5.152;2023-03-14T02:21:49;98766.94;;;8.87;78.67
51289;BME280;37372;52.294;5.152;2023-03-14T02:27:17;98763.41;;;8.87;78.67
51289;BME280;37372;52.294;5.152;2023-03-14T02:32:20;98754.09;;;8.88;79.11
51289;BME280;37372;52.294;5.152;2023-03-14T02:34:50;98760.66;;;8.87;79.01
51289;BME280;37372;52.294;5.152;2023-03-14T02:37:30;98756.03;;;8.82;79.24
51289;BME280;37372;52.294;5.152;2023-03-14T02:40:08;98754.91;;;8.88;78.70
51289;BME280;37372;52.294;5.152;2023-03-14T02:42:44;98758.75;;;8.87;79.00
51289;BME280;37372;52.294;5.152;2023-03-14T02:47:39;98750.28;;;8.79;80.00
51289;BME280;37372;52.294;5.152;2023-03-14T02:50:20;98758.75;;;8.77;79.45
51289;BME280;37372;52.294;5.152;2023-03-14T02:52:47;98745.63;;;8.79;79.28
51289;BME280;37372;52.294;5.152;2023-03-14T02:55:20;98751.91;;;8.80;79.55
51289;BME280;37372;52.294;5.152;2023-03-14T02:57:53;98742.34;;;8.72;79.64
51289;BME280;37372;52.294;5.152;2023-03-14T03:00:22;98747.53;;;8.74;79.86
51289;BME280;37372;52.294;5.152;2023-03-14T03:02:51;98740.97;;;8.70;79.73
51289;BME280;37372;52.294;5.152;2023-03-14T03:05:17;98749.16;;;8.64;80.39
51289;BME280;37372;52.294;5.152;2023-03-14T03:07:46;98740.97;;;8.64;79.52
51289;BME280;37372;52.294;5.152;2023-03-14T03:10:21;98739.03;;;8.65;79.13
51289;BME280;37372;52.294;5.152;2023-03-14T03:12:47;98730.84;;;8.70;78.95
51289;BME280;37372;52.294;5.152;2023-03-14T03:15:28;98733.84;;;8.63;79.38
51289;BME280;37372;52.294;5.152;2023-03-14T03:17:54;98728.94;;;8.65;79.22
51289;BME280;37372;52.294;5.152;2023-03-14T03:20:19;98726.72;;;8.67;79.10
51289;BME280;37372;52.294;5.152;2023-03-14T03:22:48;98742.03;;;8.68;79.22
51289;BME280;37372;52.294;5.152;2023-03-14T03:25:15;98729.44;;;8.62;78.66
51289;BME280;37372;52.294;5.152;2023-03-14T03:27:41;98733.84;;;8.58;79.24
51289;BME280;37372;52.294;5.152;2023-03-14T03:30:14;98724.25;;;8.51;79.79
51289;BME280;37372;52.294;5.152;2023-03-14T03:32:40;98729.72;;;8.51;79.62
51289;BME280;37372;52.294;5.152;2023-03-14T03:35:06;98721.50;;;8.46;79.85
51289;BME280;37372;52.294;5.152;2023-03-14T03:37:33;98723.69;;;8.49;79.73
51289;BME280;37372;52.294;5.152;2023-03-14T03:40:02;98723.16;;;8.52;79.73
51289;BME280;37372;52.294;5.152;2023-03-14T03:42:47;98722.63;;;8.60;79.36
51289;BME280;37372;52.294;5.152;2023-03-14T03:45:15;98717.13;;;8.55;79.75
51289;BME280;37372;52.294;5.152;2023-03-14T03:47:40;98716.88;;;8.56;79.76
51289;BME280;37372;52.294;5.152;2023-03-14T03:50:10;98714.97;;;8.62;80.06
51289;BME280;37372;52.294;5.152;2023-03-14T03:52:36;98719.59;;;8.56;80.00
51289;BME280;37372;52.294;5.152;2023-03-14T03:55:01;98711.97;;;8.58;79.60
51289;BME280;37372;52.294;5.152;2023-03-14T03:57:30;98720.69;;;8.55;80.01
51289;BME280;37372;52.294;5.152;2023-03-14T04:00:04;98722.63;;;8.60;79.41
51289;BME280;37372;52.294;5.152;2023-03-14T04:02:31;98722.38;;;8.66;79.31
51289;BME280;37372;52.294;5.152;2023-03-14T04:05:01;98706.25;;;8.70;78.89
51289;BME280;37372;52.294;5.152;2023-03-14T04:07:30;98717.16;;;8.75;78.73
51289;BME280;37372;52.294;5.152;2023-03-14T04:10:16;98709.78;;;8.76;78.83
51289;BME280;37372;52.294;5.152;2023-03-14T04:12:42;98711.72;;;8.80;78.37
51289;BME280;37372;52.294;5.152;2023-03-14T04:15:11;98716.09;;;8.71;78.66
51289;BME280;37372;52.294;5.152;2023-03-14T04:17:36;98720.47;;;8.77;78.71
51289;BME280;37372;52.294;5.152;2023-03-14T04:20:07;98716.38;;;8.80;78.29
51289;BME280;37372;52.294;5.152;2023-03-14T04:22:37;98727.59;;;8.83;78.50
51289;BME280;37372;52.294;5.152;2023-03-14T04:25:03;98723.22;;;8.77;78.90
51289;BME280;37372;52.294;5.152;2023-03-14T04:27:29;98712.00;;;8.79;78.86
51289;BME280;37372;52.294;5.152;2023-03-14T04:29:58;98716.91;;;8.82;78.72
51289;BME280;37372;52.294;5.152;2023-03-14T04:32:23;98718.28;;;8.84;78.45
51289;BME280;37372;52.294;5.152;2023-03-14T04:34:49;98718.81;;;8.81;78.60
51289;BME280;37372;52.294;5.152;2023-03-14T04:37:14;98719.09;;;8.80;78.98
51289;BME280;37372;52.294;5.152;2023-03-14T04:40:10;98719.09;;;8.75;79.40
51289;BME280;37372;52.294;5.152;2023-03-14T04:42:37;98719.91;;;8.70;80.19
51289;BME280;37372;52.294;5.152;2023-03-14T04:45:02;98710.59;;;8.61;81.18
51289;BME280;37372;52.294;5.152;2023-03-14T04:47:28;98711.97;;;8.58;81.24
51289;BME280;37372;52.294;5.152;2023-03-14T04:49:54;98716.56;;;8.48;82.22
51289;BME280;37372;52.294;5.152;2023-03-14T04:52:19;98723.69;;;8.49;82.54
51289;BME280;37372;52.294;5.152;2023-03-14T04:54:47;98722.88;;;8.48;82.33
51289;BME280;37372;52.294;5.152;2023-03-14T04:57:16;98722.84;;;8.38;83.13
51289;BME280;37372;52.294;5.152;2023-03-14T04:59:55;98723.41;;;8.40;83.63
51289;BME280;37372;52.294;5.152;2023-03-14T05:02:21;98718.44;;;8.32;84.31
51289;BME280;37372;52.294;5.152;2023-03-14T05:04:52;98721.13;;;8.22;85.09
51289;BME280;37372;52.294;5.152;2023-03-14T05:07:18;98715.63;;;8.11;85.46
51289;BME280;37372;52.294;5.152;2023-03-14T05:09:51;98709.06;;;8.18;85.48
51289;BME280;37372;52.294;5.152;2023-03-14T05:12:17;98711.28;;;8.21;85.36
51289;BME280;37372;52.294;5.152;2023-03-14T05:14:49;98701.44;;;8.14;85.63
51289;BME280;37372;52.294;5.152;2023-03-14T05:17:17;98691.88;;;8.12;85.84
51289;BME280;37372;52.294;5.152;2023-03-14T05:19:52;98685.28;;;8.08;86.32
51289;BME280;37372;52.294;5.152;2023-03-14T05:22:18;98691.28;;;8.10;85.85
51289;BME280;37372;52.294;5.152;2023-03-14T05:24:51;98689.13;;;8.07;86.33
51289;BME280;37372;52.294;5.152;2023-03-14T05:27:23;98682.84;;;8.06;86.71
51289;BME280;37372;52.294;5.152;2023-03-14T05:30:02;98689.13;;;8.07;86.35
51289;BME280;37372;52.294;5.152;2023-03-14T05:32:28;98681.47;;;8.09;86.68
51289;BME280;37372;52.294;5.152;2023-03-14T05:34:53;98683.94;;;8.05;86.91
51289;BME280;37372;52.294;5.152;2023-03-14T05:37:23;98690.44;;;8.04;86.97
51289;BME280;37372;52.294;5.152;2023-03-14T05:39:57;98693.75;;;8.06;87.52
51289;BME280;37372;52.294;5.152;2023-03-14T05:42:32;98687.72;;;8.04;87.13
51289;BME280;37372;52.294;5.152;2023-03-14T05:45:01;98695.09;;;8.04;86.92
51289;BME280;37372;52.294;5.152;2023-03-14T05:47:28;98698.38;;;8.01;87.87
51289;BME280;37372;52.294;5.152;2023-03-14T05:50:18;98711.22;;;8.10;87.54
51289;BME280;37372;52.294;5.152;2023-03-14T05:52:44;98714.78;;;8.11;87.31
51289;BME280;37372;52.294;5.152;2023-03-14T05:55:11;98702.78;;;8.12;87.45
51289;BME280;37372;52.294;5.152;2023-03-14T05:57:36;98719.13;;;8.02;87.71
51289;BME280;37372;52.294;5.152;2023-03-14T06:00:13;98726.22;;;8.03;87.52
51289;BME280;37372;52.294;5.152;2023-03-14T06:02:46;98744.81;;;8.06;88.04
51289;BME280;37372;52.294;5.152;2023-03-14T06:05:12;98748.06;;;8.03;88.01
51289;BME280;37372;52.294;5.152;2023-03-14T06:07:37;98761.16;;;8.01;88.03
51289;BME280;37372;52.294;5.152;2023-03-14T06:10:06;98771.31;;;8.05;87.67
51289;BME280;37372;52.294;5.152;2023-03-14T06:12:34;98803.69;;;7.86;87.16
51289;BME280;37372;52.294;5.152;2023-03-14T06:15:05;98803.28;;;7.68;86.11
51289;BME280;37372;52.294;5.152;2023-03-14T06:17:47;98801.78;;;7.50;86.63
51289;BME280;37372;52.294;5.152;2023-03-14T06:20:17;98810.34;;;7.31;87.23
51289;BME280;37372;52.294;5.152;2023-03-14T06:22:44;98811.44;;;7.30;87.20
51289;BME280;37372;52.294;5.152;2023-03-14T06:25:10;98811.03;;;7.17;87.30
51289;BME280;37372;52.294;5.152;2023-03-14T06:27:35;98822.72;;;7.12;87.83
51289;BME280;37372;52.294;5.152;2023-03-14T06:30:06;98826.22;;;7.07;88.18
51289;BME280;37372;52.294;5.152;2023-03-14T06:32:35;98841.72;;;7.02;88.17
51289;BME280;37372;52.294;5.152;2023-03-14T06:35:19;98842.75;;;6.96;88.88
51289;BME280;37372;52.294;5.152;2023-03-14T06:37:48;98856.31;;;6.91;89.10
51289;BME280;37372;52.294;5.152;2023-03-14T06:40:16;98865.88;;;6.93;88.92
51289;BME280;37372;52.294;5.152;2023-03-14T06:42:44;98872.94;;;6.89;88.36
51289;BME280;37372;52.294;5.152;2023-03-14T06:45:10;98886.47;;;6.84;88.71
51289;BME280;37372;52.294;5.152;2023-03-14T06:47:36;98884.44;;;6.74;88.40
51289;BME280;37372;52.294;5.152;2023-03-14T06:50:04;98888.81;;;6.75;88.66
51289;BME280;37372;52.294;5.152;2023-03-14T06:52:51;98900.50;;;6.71;88.25
51289;BME280;37372;52.294;5.152;2023-03-14T06:55:17;98913.78;;;6.67;88.44
51289;BME280;37372;52.294;5.152;2023-03-14T06:57:46;98926.59;;;6.67;88.28
51289;BME280;37372;52.294;5.152;2023-03-14T07:00:16;98928.75;;;6.65;87.61
51289;BME280;37372;52.294;5.152;2023-03-14T07:02:45;98927.28;;;6.57;87.78
51289;BME280;37372;52.294;5.152;2023-03-14T07:05:16;98948.28;;;6.40;87.61
51289;BME280;37372;52.294;5.152;2023-03-14T07:07:41;98960.00;;;6.40;88.21
51289;BME280;37372;52.294;5.152;2023-03-14T07:10:12;98953.09;;;6.33;88.03
51289;BME280;37372;52.294;5.152;2023-03-14T07:12:41;98970.97;;;6.29;88.10
51289;BME280;37372;52.294;5.152;2023-03-14T07:15:06;98982.69;;;6.29;88.81
51289;BME280;37372;52.294;5.152;2023-03-14T07:17:42;98989.97;;;6.23;87.72
51289;BME280;37372;52.294;5.152;2023-03-14T07:20:28;99001.28;;;6.15;87.59
51289;BME280;37372;52.294;5.152;2023-03-14T07:22:57;99006.72;;;6.15;88.12
51289;BME280;37372;52.294;5.152;2023-03-14T07:25:22;99023.56;;;6.12;86.79
51289;BME280;37372;52.294;5.152;2023-03-14T07:27:47;99031.31;;;6.20;87.03
51289;BME280;37372;52.294;5.152;2023-03-14T07:30:19;99051.91;;;6.16;87.20
51289;BME280;37372;52.294;5.152;2023-03-14T07:32:44;99062.81;;;6.16;87.44
51289;BME280;37372;52.294;5.152;2023-03-14T07:35:10;99094.28;;;5.95;86.95
51289;BME280;37372;52.294;5.152;2023-03-14T07:37:35;99099.84;;;5.89;87.40
51289;BME280;37372;52.294;5.152;2023-03-14T07:40:02;99110.81;;;5.65;87.28
51289;BME280;37372;52.294;5.152;2023-03-14T07:42:32;99117.59;;;5.51;87.05
51289;BME280;37372;52.294;5.152;2023-03-14T07:44:58;99128.63;;;5.33;86.37
51289;BME280;37372;52.294;5.152;2023-03-14T07:47:38;99156.19;;;5.13;85.88
51289;BME280;37372;52.294;5.152;2023-03-14T07:50:04;99175.31;;;4.95;86.26
51289;BME280;37372;52.294;5.152;2023-03-14T07:52:32;99183.81;;;4.86;86.46
51289;BME280;37372;52.294;5.152;2023-03-14T07:54:58;99191.59;;;4.83;86.17
51289;BME280;37372;52.294;5.152;2023-03-14T07:57:35;99200.59;;;4.83;85.97
51289;BME280;37372;52.294;5.152;2023-03-14T08:00:01;99209.22;;;4.80;85.30
51289;BME280;37372;52.294;5.152;2023-03-14T08:02:30;99217.31;;;4.69;84.76
51289;BME280;37372;52.294;5.152;2023-03-14T08:04:56;99231.63;;;4.76;85.22
51289;BME280;37372;52.294;5.152;2023-03-14T08:07:24;99241.47;;;4.77;85.37
51289;BME280;37372;52.294;5.152;2023-03-14T08:10:02;99252.53;;;4.75;83.36
51289;BME280;37372;52.294;5.152;2023-03-14T08:12:34;99258.91;;;4.69;83.30
51289;BME280;37372;52.294;5.152;2023-03-14T08:15:08;99273.31;;;4.70;82.75
51289;BME280;37372;52.294;5.152;2023-03-14T08:17:37;99291.28;;;4.82;83.03
51289;BME280;37372;52.294;5.152;2023-03-14T08:20:03;99299.25;;;4.84;82.81
51289;BME280;37372;52.294;5.152;2023-03-14T08:25:16;99318.41;;;5.01;82.65
51289;BME280;37372;52.294;5.152;2023-03-14T08:27:46;99330.13;;;5.13;81.79
51289;BME280;37372;52.294;5.152;2023-03-14T08:30:15;99342.31;;;5.10;80.02
51289;BME280;37372;52.294;5.152;2023-03-14T08:33:02;99361.84;;;5.19;79.47
51289;BME280;37372;52.294;5.152;2023-03-14T08:35:31;99366.63;;;5.05;79.39
51289;BME280;37372;52.294;5.152;2023-03-14T08:38:00;99372.91;;;5.06;79.12
51289;BME280;37372;52.294;5.152;2023-03-14T08:40:27;99382.03;;;5.11;78.33
51289;BME280;37372;52.294;5.152;2023-03-14T08:42:54;99396.72;;;5.34;78.47
51289;BME280;37372;52.294;5.152;2023-03-14T08:45:21;99401.97;;;5.47;78.43
51289;BME280;37372;52.294;5.152;2023-03-14T08:47:55;99410.06;;;5.65;77.74
51289;BME280;37372;52.294;5.152;2023-03-14T08:53:26;99430.63;;;5.73;76.88
51289;BME280;37372;52.294;5.152;2023-03-14T08:56:02;99441.72;;;5.60;75.81
51289;BME280;37372;52.294;5.152;2023-03-14T08:58:29;99455.00;;;5.56;76.54
51289;BME280;37372;52.294;5.152;2023-03-14T09:00:54;99460.97;;;5.35;75.24
51289;BME280;37372;52.294;5.152;2023-03-14T09:03:26;99462.38;;;5.37;76.71
51289;BME280;37372;52.294;5.152;2023-03-14T09:06:12;99481.16;;;5.39;77.36
51289;BME280;37372;52.294;5.152;2023-03-14T09:08:45;99495.38;;;5.41;76.05
51289;BME280;37372;52.294;5.152;2023-03-14T09:11:17;99498.06;;;5.29;77.55
51289;BME280;37372;52.294;5.152;2023-03-14T09:13:53;99507.47;;;5.27;77.97
51289;BME280;37372;52.294;5.152;2023-03-14T09:16:51;99525.78;;;5.01;77.31
51289;BME280;37372;52.294;5.152;2023-03-14T09:19:17;99532.88;;;4.84;79.14
51289;BME280;37372;52.294;5.152;2023-03-14T09:21:46;99541.56;;;4.93;78.75
51289;BME280;37372;52.294;5.152;2023-03-14T09:24:12;99540.91;;;4.97;79.22
51289;BME280;37372;52.294;5.152;2023-03-14T09:26:46;99556.97;;;5.17;79.24
51289;BME280;37372;52.294;5.152;2023-03-14T09:29:12;99561.19;;;5.31;78.73
51289;BME280;37372;52.294;5.152;2023-03-14T09:31:41;99573.69;;;5.51;76.96
51289;BME280;37372;52.294;5.152;2023-03-14T09:34:09;99580.34;;;5.55;77.50
51289;BME280;37372;52.294;5.152;2023-03-14T09:37:01;99590.50;;;5.78;77.71
51289;BME280;37372;52.294;5.152;2023-03-14T09:39:27;99598.75;;;5.71;76.32
51289;BME280;37372;52.294;5.152;2023-03-14T09:42:06;99623.91;;;5.66;76.96
51289;BME280;37372;52.294;5.152;2023-03-14T09:44:39;99621.75;;;5.57;76.12
51289;BME280;37372;52.294;5.152;2023-03-14T09:47:12;99636.41;;;5.37;75.92
51289;BME280;37372;52.294;5.152;2023-03-14T09:49:45;99654.91;;;5.47;77.31
51289;BME280;37372;52.294;5.152;2023-03-14T09:52:19;99670.25;;;5.41;77.98
51289;BME280;37372;52.294;5.152;2023-03-14T09:55:15;99671.03;;;5.05;77.79
51289;BME280;37372;52.294;5.152;2023-03-14T09:57:44;99673.59;;;5.00;78.59
51289;BME280;37372;52.294;5.152;2023-03-14T10:00:28;99669.81;;;5.01;79.37
51289;BME280;37372;52.294;5.152;2023-03-14T10:05:58;99687.16;;;5.25;78.96
51289;BME280;37372;52.294;5.152;2023-03-14T10:08:24;99697.06;;;5.38;78.29
51289;BME280;37372;52.294;5.152;2023-03-14T10:10:54;99712.47;;;5.44;77.23
51289;BME280;37372;52.294;5.152;2023-03-14T10:16:47;99735.38;;;5.73;72.50
51289;BME280;37372;52.294;5.152;2023-03-14T10:19:16;99746.34;;;5.85;72.28
51289;BME280;37372;52.294;5.152;2023-03-14T10:22:11;99758.06;;;5.85;71.64
51289;BME280;37372;52.294;5.152;2023-03-14T10:24:45;99772.31;;;5.87;71.81
51289;BME280;37372;52.294;5.152;2023-03-14T10:27:20;99774.94;;;5.76;71.20
51289;BME280;37372;52.294;5.152;2023-03-14T10:30:26;99807.00;;;5.49;70.75
51289;BME280;37372;52.294;5.152;2023-03-14T10:33:11;99801.84;;;5.40;70.06
51289;BME280;37372;52.294;5.152;2023-03-14T10:35:37;99807.50;;;5.39;69.95
51289;BME280;37372;52.294;5.152;2023-03-14T10:38:04;99819.16;;;5.46;67.47
51289;BME280;37372;52.294;5.152;2023-03-14T10:40:41;99832.75;;;5.46;66.46
51289;BME280;37372;52.294;5.152;2023-03-14T10:43:17;99837.72;;;5.56;65.02
51289;BME280;37372;52.294;5.152;2023-03-14T10:46:00;99850.03;;;5.58;65.48
51289;BME280;37372;52.294;5.152;2023-03-14T10:48:37;99854.75;;;5.44;66.07
51289;BME280;37372;52.294;5.152;2023-03-14T10:51:25;99878.56;;;5.49;65.12
51289;BME280;37372;52.294;5.152;2023-03-14T10:54:02;99877.69;;;5.55;64.16
51289;BME280;37372;52.294;5.152;2023-03-14T10:56:35;99883.31;;;5.79;66.93
51289;BME280;37372;52.294;5.152;2023-03-14T10:59:03;99895.38;;;5.89;63.65
51289;BME280;37372;52.294;5.152;2023-03-14T11:01:50;99907.00;;;6.03;63.67
51289;BME280;37372;52.294;5.152;2023-03-14T11:04:45;99917.16;;;6.14;63.02
51289;BME280;37372;52.294;5.152;2023-03-14T11:10:03;99938.84;;;6.64;61.78
51289;BME280;37372;52.294;5.152;2023-03-14T11:22:31;99981.38;;;6.22;60.93
51289;BME280;37372;52.294;5.152;2023-03-14T11:25:22;99991.91;;;6.18;60.02
51289;BME280;37372;52.294;5.152;2023-03-14T11:28:29;100006.44;;;6.31;57.17
51289;BME280;37372;52.294;5.152;2023-03-14T11:31:19;100016.38;;;6.25;56.99
51289;BME280;37372;52.294;5.152;2023-03-14T11:37:14;100032.72;;;6.43;52.59
51289;BME280;37372;52.294;5.152;2023-03-14T11:39:51;100033.91;;;6.54;56.52
51289;BME280;37372;52.294;5.152;2023-03-14T11:42:24;100044.28;;;6.64;57.02
51289;BME280;37372;52.294;5.152;2023-03-14T11:44:59;100054.13;;;6.65;57.08
51289;BME280;37372;52.294;5.152;2023-03-14T11:47:39;100051.72;;;6.50;56.75
51289;BME280;37372;52.294;5.152;2023-03-14T11:50:21;100068.38;;;6.42;56.60
51289;BME280;37372;52.294;5.152;2023-03-14T11:53:40;100077.00;;;6.39;54.04
51289;BME280;37372;52.294;5.152;2023-03-14T11:56:18;100082.50;;;6.57;56.01
51289;BME280;37372;52.294;5.152;2023-03-14T12:04:33;100097.50;;;6.66;54.25
51289;BME280;37372;52.294;5.152;2023-03-14T12:07:03;100112.44;;;6.82;52.33
51289;BME280;37372;52.294;5.152;2023-03-14T12:09:49;100119.94;;;6.87;48.73
51289;BME280;37372;52.294;5.152;2023-03-14T12:12:23;100120.47;;;6.77;51.02
51289;BME280;37372;52.294;5.152;2023-03-14T12:14:58;100127.06;;;6.88;53.19
51289;BME280;37372;52.294;5.152;2023-03-14T12:17:37;100135.47;;;6.86;50.79
51289;BME280;37372;52.294;5.152;2023-03-14T12:23:04;100151.66;;;7.06;49.74
51289;BME280;37372;52.294;5.152;2023-03-14T12:25:46;100147.50;;;7.03;49.90
51289;BME280;37372;52.294;5.152;2023-03-14T12:28:30;100157.19;;;7.18;53.13
51289;BME280;37372;52.294;5.152;2023-03-14T12:30:56;100166.75;;;7.09;48.03
51289;BME280;37372;52.294;5.152;2023-03-14T12:39:44;100171.03;;;6.73;48.39
51289;BME280;37372;52.294;5.152;2023-03-14T12:42:21;100175.06;;;6.70;47.59
51289;BME280;37372;52.294;5.152;2023-03-14T12:44:50;100178.69;;;6.83;51.95
51289;BME280;37372;52.294;5.152;2023-03-14T12:49:46;100200.97;;;7.04;50.44
51289;BME280;37372;52.294;5.152;2023-03-14T12:55:20;100206.91;;;6.95;47.92
51289;BME280;37372;52.294;5.152;2023-03-14T12:58:31;100214.91;;;6.96;49.24
51289;BME280;37372;52.294;5.152;2023-03-14T13:01:16;100214.53;;;7.11;48.73
51289;BME280;37372;52.294;5.152;2023-03-14T13:03:51;100221.91;;;7.11;50.06
51289;BME280;37372;52.294;5.152;2023-03-14T13:06:48;100237.59;;;7.15;48.30
51289;BME280;37372;52.294;5.152;2023-03-14T13:12:14;100257.91;;;7.19;47.06
51289;BME280;37372;52.294;5.152;2023-03-14T13:14:48;100262.91;;;7.22;48.28
51289;BME280;37372;52.294;5.152;2023-03-14T13:17:22;100261.50;;;7.38;48.26
51289;BME280;37372;52.294;5.152;2023-03-14T13:19:56;100269.84;;;7.43;47.93
51289;BME280;37372;52.294;5.152;2023-03-14T13:22:28;100275.63;;;7.35;49.24
51289;BME280;37372;52.294;5.152;2023-03-14T13:25:05;100281.84;;;7.42;50.45
51289;BME280;37372;52.294;5.152;2023-03-14T13:27:34;100273.34;;;7.50;51.93
51289;BME280;37372;52.294;5.152;2023-03-14T13:32:57;100308.34;;;7.35;54.43
51289;BME280;37372;52.294;5.152;2023-03-14T13:35:27;100306.34;;;7.49;52.36
51289;BME280;37372;52.294;5.152;2023-03-14T13:38:03;100314.34;;;7.19;52.75
51289;BME280;37372;52.294;5.152;2023-03-14T13:40:31;100318.16;;;6.86;53.36
51289;BME280;37372;52.294;5.152;2023-03-14T13:43:14;100321.28;;;6.90;50.62
51289;BME280;37372;52.294;5.152;2023-03-14T13:48:49;100335.94;;;6.89;50.28
51289;BME280;37372;52.294;5.152;2023-03-14T13:51:18;100344.88;;;6.71;50.55
51289;BME280;37372;52.294;5.152;2023-03-14T13:53:52;100357.75;;;6.50;51.00
51289;BME280;37372;52.294;5.152;2023-03-14T13:56:45;100365.78;;;6.32;51.18
51289;BME280;37372;52.294;5.152;2023-03-14T13:59:40;100375.91;;;6.18;49.78
51289;BME280;37372;52.294;5.152;2023-03-14T14:02:15;100380.28;;;6.19;49.51
51289;BME280;37372;52.294;5.152;2023-03-14T14:04:40;100384.00;;;6.38;50.58
51289;BME280;37372;52.294;5.152;2023-03-14T14:07:08;100393.41;;;6.42;49.02
51289;BME280;37372;52.294;5.152;2023-03-14T14:09:50;100400.09;;;6.53;48.60
51289;BME280;37372;52.294;5.152;2023-03-14T14:15:31;100412.44;;;6.49;49.60
51289;BME280;37372;52.294;5.152;2023-03-14T14:18:06;100417.25;;;6.60;48.82
51289;BME280;37372;52.294;5.152;2023-03-14T14:20:52;100415.34;;;6.61;47.79
51289;BME280;37372;52.294;5.152;2023-03-14T14:26:06;100435.63;;;6.78;51.07
51289;BME280;37372;52.294;5.152;2023-03-14T14:29:04;100441.28;;;6.83;50.14
51289;BME280;37372;52.294;5.152;2023-03-14T14:31:32;100446.72;;;6.83;50.42
51289;BME280;37372;52.294;5.152;2023-03-14T14:34:02;100449.28;;;6.71;48.78
51289;BME280;37372;52.294;5.152;2023-03-14T14:36:53;100466.56;;;6.39;47.91
51289;BME280;37372;52.294;5.152;2023-03-14T14:39:25;100477.25;;;6.34;49.78
51289;BME280;37372;52.294;5.152;2023-03-14T14:41:54;100476.44;;;6.27;49.87
51289;BME280;37372;52.294;5.152;2023-03-14T14:44:32;100475.63;;;6.19;49.43
51289;BME280;37372;52.294;5.152;2023-03-14T14:47:01;100479.78;;;6.29;49.27
51289;BME280;37372;52.294;5.152;2023-03-14T14:49:31;100484.97;;;6.43;48.29
51289;BME280;37372;52.294;5.152;2023-03-14T14:52:31;100491.88;;;6.59;48.35